ENGM Airport Information

Runway Information
Runway 01L Length 11811 ft width 148 ft
Elevation 656 ft Threshold 0 ft Heading 16
Runway 19R Length 11811 ft Width 148 ft
Elevation 675 ft Threshold 0 ft Heading 196
Runway 01R Length 9678 ft width 148 ft
Elevation 670 ft Threshold 0 ft Heading 16
Runway 19L Length 9678 ft Width 148 ft
Elevation 681 ft Threshold 0 ft Heading 196
Airport Frequencies
Type APP Name APP Frequency 119.975 MHZ
Type ATIS Name ATIS Frequency 126.125 MHZ
Type CLD Name CLNC DEL Frequency 121.6 MHZ
Type DIR Name DIRECTOR Frequency 131.35 MHZ
Type GND Name GND Frequency 121.925 MHZ
Type MISC Name DE ICING Frequency 131.975 MHZ
Type OPS Name WINGOPS Frequency 29.38 MHZ
Type PMSV Name PMSV METRO Frequency 134.175 MHZ
Type TWR Name TWR Frequency 118.3 MHZ
Airport Navaids
Type NDB Name Bergerud Frequency 316 KHZ
Type VOR-DME Name Gardermoen Frequency 115950 KHZ
Type NDB Name Oppaker Frequency 334 KHZ
Type NDB Name Solberg Frequency 414 KHZ
Type NDB Name Soknen Frequency 387 KHZ
Airport Weather Information & NOTAM
Deprecated: The each() function is deprecated. This message will be suppressed on further calls in /storage/content/79/1005879/virtualnac.org/public_html/v2/lib/functions.php on line 154 ADDS - METARS form results

(1143 UTC 17 April 2021)
Data provider http://aviationweather.gov/metar/data/
 
METAR text: ENGM 171120Z 03007KT 340V080 CAVOK 12/M05 Q1031 NOSIG
Conditions at: ENGM (OSLO/GARDERMOEN , NO) observed 1120 UTC 17 April 2021
Temperature: 12.0°C (54°F)
Dewpoint: -5.0°C (23°F) [RH = 30%]
Pressure (altimeter): 30.44 inches Hg (1031.0 mb)
Winds: from the NNE (30 degrees) at 8 MPH (7 knots; 3.6 m/s)
Visibility: 6 or more miles (10+ km)
Ceiling: ceiling and visibility are OK
Clouds: unknown
Weather: no significant weather observed at this time

METAR text: ENGM 171050Z 02008KT 340V080 CAVOK 12/M04 Q1031 NOSIG
Conditions at: ENGM (OSLO/GARDERMOEN , NO) observed 1050 UTC 17 April 2021
Temperature: 12.0°C (54°F)
Dewpoint: -4.0°C (25°F) [RH = 32%]
Pressure (altimeter): 30.44 inches Hg (1031.0 mb)
Winds: from the NNE (20 degrees) at 9 MPH (8 knots; 4.1 m/s)
Visibility: 6 or more miles (10+ km)
Ceiling: ceiling and visibility are OK
Clouds: unknown
Weather: no significant weather observed at this time

Forecast for: ENGM (OSLO/GARDERMOEN , NO)
Text: ENGM 1706/1806 02008KT CAVOK
Forecast period: 0600 UTC 17 April 2021 to 0600 UTC 18 April 2021
Forecast type: FROM: standard forecast or significant change
Winds: from the NNE (20 degrees) at 9 MPH (8 knots; 4.1 m/s)
Visibility: 6 or more miles (10+ km)
Ceiling: unknown
Clouds: missing
Weather: NSW  (no significant weather)